PWSweather.com
Personal Weather Stations
Station Observations

AwhituWaiuku, CA 268400

Lat: -37.058, Lon: -174.6346

Elevation: 250

Station Type: Personal

http://www.weather-display.com/windy/gb/grahamsbeach.htm

High Low Average
Temperature 72.6°F22.6°F 66.0°F18.9°F 68.8°F20.4°F
Dew Point 66.7°F19.3°F 64.5°F18.1°F 65.3°F18.5°F
Winds 8.1 mph NE13.0 mph NE Calm Calm 3.7 mph 6.0 mph
Wind Gusts 12.7 mph20.4 mph -- 5.1 mph8.2 mph
Humidity 96% 79% 89%
Pressure 29.93 in1013.50 in 29.87 in1011.50 in -
Precipitation 0.29 in7.40 in - -
Hour Temp Dew Point Humidity Winds Wind Gusts Pressure Precip Precip Rate Daily Precip Total
12:00 AM 68.4°F20.2°C 63.4°F17.4°C 84% 4.6 mph NE7.4 kmh NE 9.2 mph14.8 kmh 29.94 in1013.9 mb 0.00 in0.0 mm 0.00 in/hr0.0 mm/hr 0.00 in0.0 mm
12:30 AM 68.3°F20.2°C 63.3°F17.4°C 84% 4.6 mph NNE7.4 kmh NNE 5.8 mph9.3 kmh 29.94 in1013.9 mb 0.00 in0.0 mm 0.00 in/hr0.0 mm/hr 0.00 in0.0 mm
01:00 AM 68.1°F20.1°C 63.4°F17.4°C 85% 3.5 mph NNE5.6 kmh NNE 4.6 mph7.4 kmh 29.93 in1013.5 mb 0.00 in0.0 mm 0.00 in/hr0.0 mm/hr 0.00 in0.0 mm
01:30 AM 67.8°F19.9°C 63.8°F17.7°C 87% 1.2 mph ENE1.9 kmh ENE 2.3 mph3.7 kmh 29.92 in1013.2 mb 0.00 in0.0 mm 0.00 in/hr0.0 mm/hr 0.00 in0.0 mm
02:00 AM 67.7°F19.8°C 64.0°F17.8°C 88% 1.2 mph NE1.9 kmh NE 3.5 mph5.6 kmh 29.92 in1013.2 mb 0.00 in0.0 mm 0.00 in/hr0.0 mm/hr 0.00 in0.0 mm
02:30 AM 67.7°F19.8°C 64.7°F18.2°C 90% 1.2 mph ENE1.9 kmh ENE 2.3 mph3.7 kmh 29.91 in1012.9 mb 0.00 in0.0 mm 0.00 in/hr0.0 mm/hr 0.00 in0.0 mm
03:00 AM 67.7°F19.8°C 64.7°F18.2°C 90% 2.3 mph NE3.7 kmh NE 4.6 mph7.4 kmh 29.91 in1012.9 mb 0.00 in0.0 mm 0.00 in/hr0.0 mm/hr 0.00 in0.0 mm
03:30 AM 67.9°F19.9°C 65.2°F18.4°C 91% 2.3 mph ENE3.7 kmh ENE 6.9 mph11.1 kmh 29.91 in1012.9 mb 0.00 in0.0 mm 0.00 in/hr0.0 mm/hr 0.00 in0.0 mm
04:00 AM 68.0°F20.0°C 65.3°F18.5°C 91% 2.3 mph E3.7 kmh E 3.5 mph5.6 kmh 29.90 in1012.5 mb 0.00 in0.0 mm 0.00 in/hr0.0 mm/hr 0.00 in0.0 mm
04:30 AM 67.9°F19.9°C 64.9°F18.3°C 90% 3.5 mph E5.6 kmh E 6.9 mph11.1 kmh 29.90 in1012.5 mb 0.00 in0.0 mm 0.00 in/hr0.0 mm/hr 0.00 in0.0 mm
05:00 AM 68.0°F20.0°C 65.0°F18.3°C 90% 3.5 mph NE5.6 kmh NE 5.8 mph9.3 kmh 29.91 in1012.9 mb 0.00 in0.0 mm 0.00 in/hr0.0 mm/hr 0.00 in0.0 mm
05:30 AM 67.8°F19.9°C 64.7°F18.2°C 90% 4.6 mph NE7.4 kmh NE 4.6 mph7.4 kmh 29.91 in1012.9 mb 0.00 in0.0 mm 0.00 in/hr0.0 mm/hr 0.00 in0.0 mm
06:00 AM 66.8°F19.3°C 64.1°F17.8°C 91% 5.8 mph NE9.3 kmh NE 10.4 mph16.7 kmh 29.91 in1012.9 mb 0.00 in0.0 mm 0.00 in/hr0.0 mm/hr 0.00 in0.0 mm
06:30 AM 67.0°F19.4°C 64.9°F18.3°C 93% 2.3 mph E3.7 kmh E 3.5 mph5.6 kmh 29.91 in1012.9 mb 0.00 in0.0 mm 0.00 in/hr0.0 mm/hr 0.00 in0.0 mm
07:00 AM 67.7°F19.8°C 65.3°F18.5°C 92% 2.3 mph E3.7 kmh E 5.8 mph9.3 kmh 29.91 in1012.9 mb 0.00 in0.0 mm 0.00 in/hr0.0 mm/hr 0.00 in0.0 mm
07:30 AM 68.0°F20.0°C 65.6°F18.7°C 92% 2.3 mph NE3.7 kmh NE 3.5 mph5.6 kmh 29.92 in1013.2 mb 0.00 in0.0 mm 0.00 in/hr0.0 mm/hr 0.00 in0.0 mm
08:00 AM 68.4°F20.2°C 64.7°F18.2°C 88% 5.8 mph NE9.3 kmh NE 9.2 mph14.8 kmh 29.93 in1013.5 mb 0.00 in0.0 mm 0.00 in/hr0.0 mm/hr 0.00 in0.0 mm
08:30 AM 68.6°F20.3°C 64.9°F18.3°C 88% 6.9 mph NNE11.1 kmh NNE 11.5 mph18.5 kmh 29.93 in1013.5 mb 0.00 in0.0 mm 0.00 in/hr0.0 mm/hr 0.00 in0.0 mm
09:00 AM 69.0°F20.6°C 65.9°F18.8°C 90% 6.9 mph N11.1 kmh N 11.5 mph18.5 kmh 29.93 in1013.5 mb 0.00 in0.0 mm 0.00 in/hr0.0 mm/hr 0.00 in0.0 mm
09:30 AM 68.9°F20.5°C 66.2°F19.0°C 91% 6.9 mph NNE11.1 kmh NNE 11.5 mph18.5 kmh 29.93 in1013.5 mb 0.02 in0.5 mm 0.04 in/hr1.0 mm/hr 0.02 in0.5 mm
10:00 AM 69.3°F20.7°C 66.6°F19.2°C 91% 4.6 mph N7.4 kmh N 6.9 mph11.1 kmh 29.93 in1013.5 mb 0.01 in0.3 mm 0.02 in/hr0.5 mm/hr 0.03 in0.8 mm
10:30 AM 69.3°F20.7°C 65.9°F18.8°C 89% 5.8 mph N9.3 kmh N 12.7 mph20.4 kmh 29.93 in1013.5 mb 0.00 in0.0 mm 0.00 in/hr0.0 mm/hr 0.03 in0.8 mm
11:00 AM 69.0°F20.6°C 65.9°F18.8°C 90% 4.6 mph NE7.4 kmh NE 9.2 mph14.8 kmh 29.93 in1013.5 mb 0.00 in0.0 mm 0.00 in/hr0.0 mm/hr 0.03 in0.8 mm
11:30 AM 69.4°F20.8°C 65.7°F18.7°C 88% 5.8 mph NNW9.3 kmh NNW 10.4 mph16.7 kmh 29.93 in1013.5 mb 0.01 in0.3 mm 0.02 in/hr0.5 mm/hr 0.04 in1.0 mm